Time;durP1;ratioP1;P1;durP2;ratioP2;P2;SDS_P1;SDS_P2;PMS_P1;PMS_P2;Temp;Humidity;BMP_temperature;BMP_pressure;BME280_temperature;BME280_humidity;BME280_pressure;Samples;Min_cycle;Max_cycle;Signal;HPM_P1;HPM_P2
2022/08/03 00:00:46;;;;;;;5.75;2.80;;;;;;;14.88;76.12;98717.94;4201328;28;20345;-71
2022/08/03 00:02:46;;;;;;;4.90;3.00;;;;;;;14.89;75.58;98724.31;4201408;28;20679;-72
2022/08/03 00:04:47;;;;;;;5.85;3.50;;;;;;;14.91;75.50;98721.16;4200313;28;20088;-71
2022/08/03 00:06:47;;;;;;;4.15;2.80;;;;;;;14.91;74.95;98726.72;4201672;28;20480;-72
2022/08/03 00:08:47;;;;;;;4.20;2.55;;;;;;;14.86;74.93;98723.13;4199020;28;20652;-71
2022/08/03 00:10:48;;;;;;;3.92;2.45;;;;;;;14.85;74.69;98727.13;4200793;28;20063;-71
2022/08/03 00:12:49;;;;;;;4.82;2.45;;;;;;;14.82;74.36;98716.78;4201385;28;20108;-72
2022/08/03 00:14:50;;;;;;;5.95;2.55;;;;;;;14.81;73.75;98718.00;4200272;28;20527;-71
2022/08/03 00:16:50;;;;;;;11.50;3.17;;;;;;;14.80;73.45;98723.94;4200400;28;20143;-71
2022/08/03 00:18:51;;;;;;;3.92;2.70;;;;;;;14.75;73.29;98714.00;4200664;28;20043;-71
2022/08/03 00:20:51;;;;;;;5.63;2.60;;;;;;;14.76;73.84;98723.16;4200029;28;20052;-71
2022/08/03 00:22:51;;;;;;;4.13;2.70;;;;;;;14.75;73.98;98722.38;4201196;28;20070;-71
2022/08/03 00:24:52;;;;;;;3.65;3.03;;;;;;;14.73;73.56;98715.59;4191354;28;20048;-71
2022/08/03 00:26:52;;;;;;;4.45;2.92;;;;;;;14.73;73.81;98723.94;4200307;28;20444;-71
2022/08/03 00:28:52;;;;;;;4.65;2.70;;;;;;;14.69;73.80;98715.59;4198519;28;20968;-71
2022/08/03 00:30:54;;;;;;;4.82;2.65;;;;;;;14.66;74.28;98713.63;4201264;28;20539;-71
2022/08/03 00:32:55;;;;;;;4.20;2.90;;;;;;;14.59;75.52;98714.44;4198069;28;20517;-72
2022/08/03 00:34:55;;;;;;;3.65;3.10;;;;;;;14.57;77.03;98724.38;4199661;28;20473;-72
2022/08/03 00:36:55;;;;;;;4.13;3.35;;;;;;;14.55;77.75;98727.53;4199474;28;20066;-71
2022/08/03 00:38:56;;;;;;;5.13;2.88;;;;;;;14.49;78.09;98720.81;4201580;28;20036;-71
2022/08/03 00:40:56;;;;;;;5.43;3.08;;;;;;;14.50;78.15;98727.97;4200743;28;20089;-71
2022/08/03 00:42:59;;;;;;;6.47;3.20;;;;;;;14.44;78.50;98717.59;4201528;28;20780;-71
2022/08/03 00:44:59;;;;;;;8.27;3.60;;;;;;;14.40;78.79;98725.13;4198509;28;20572;-71
2022/08/03 00:47:00;;;;;;;6.13;3.03;;;;;;;14.34;78.79;98724.75;4199342;28;20123;-71
2022/08/03 00:49:01;;;;;;;3.90;3.38;;;;;;;14.31;78.41;98728.31;4201076;28;20123;-71
2022/08/03 00:51:01;;;;;;;4.38;3.35;;;;;;;14.31;77.90;98722.75;4199782;28;20738;-71
2022/08/03 00:53:04;;;;;;;6.00;4.00;;;;;;;14.26;78.61;98720.38;4200420;28;20052;-71
2022/08/03 00:55:04;;;;;;;;;;;;;;;14.22;78.08;98725.13;4201223;28;20480;-71
2022/08/03 00:57:06;;;;;;;6.53;3.22;;;;;;;14.21;77.96;98729.88;4198251;28;19941;-71
2022/08/03 00:59:08;;;;;;;6.82;3.10;;;;;;;14.12;77.57;98718.34;4201138;28;20043;-71
2022/08/03 01:01:11;;;;;;;5.00;3.08;;;;;;;14.11;77.82;98730.69;4200737;28;20041;-71
2022/08/03 01:03:11;;;;;;;5.07;3.30;;;;;;;14.13;77.23;98727.50;4201619;28;20101;-71
2022/08/03 01:05:12;;;;;;;3.63;3.22;;;;;;;14.07;76.69;98727.09;4200879;28;20496;-71
2022/08/03 01:07:27;;;;;;;5.38;3.55;;;;;;;14.02;77.21;98725.50;4201968;28;20154;-71
2022/08/03 01:09:49;;;;;;;8.18;3.58;;;;;;;13.95;77.17;98728.28;4200794;28;20044;-71
2022/08/03 01:12:00;;;;;;;4.97;3.05;;;;;;;13.94;77.46;98728.66;4201094;28;20235;-71
2022/08/03 01:14:12;;;;;;;5.72;3.35;;;;;;;13.90;77.23;98719.50;4201051;28;20424;-71
2022/08/03 01:16:22;;;;;;;5.88;3.15;;;;;;;13.86;77.12;98725.06;4199790;28;20373;-71
2022/08/03 01:18:40;;;;;;;6.35;3.05;;;;;;;13.85;77.18;98722.69;4201169;28;20036;-71
2022/08/03 01:20:46;;;;;;;26.17;5.20;;;;;;;13.85;76.53;98725.47;4201856;28;20379;-71
2022/08/03 01:23:26;;;;;;;6.22;3.83;;;;;;;13.84;77.00;98724.69;4200655;28;20041;-71
2022/08/03 01:25:58;;;;;;;6.18;3.35;;;;;;;13.81;77.59;98721.88;4201203;28;20047;-71
2022/08/03 01:28:02;;;;;;;4.15;3.13;;;;;;;13.78;77.71;98720.69;4200299;28;20103;-71
2022/08/03 01:30:07;;;;;;;5.78;3.30;;;;;;;13.78;76.86;98720.69;4200330;28;20083;-71
2022/08/03 01:32:12;;;;;;;4.30;3.03;;;;;;;13.75;77.36;98713.94;4201706;28;20040;-71
2022/08/03 01:34:15;;;;;;;3.95;3.20;;;;;;;13.76;77.86;98723.06;4199232;28;20067;-71
2022/08/03 01:36:21;;;;;;;5.25;3.30;;;;;;;13.72;77.94;98719.47;4202508;28;20032;-71
2022/08/03 01:38:26;;;;;;;3.97;3.17;;;;;;;13.69;78.38;98717.47;4201040;28;20307;-71
2022/08/03 01:40:28;;;;;;;5.20;2.85;;;;;;;13.66;78.66;98723.84;4201906;28;20461;-71
2022/08/03 01:42:31;;;;;;;3.83;3.17;;;;;;;13.62;79.13;98721.03;4200946;28;20108;-71
2022/08/03 01:44:37;;;;;;;5.43;3.20;;;;;;;13.61;79.51;98719.44;4201502;28;20210;-71
2022/08/03 01:46:39;;;;;;;3.83;3.42;;;;;;;13.57;79.85;98718.66;4202113;28;20044;-71
2022/08/03 01:48:42;;;;;;;5.18;3.72;;;;;;;13.52;80.77;98715.44;4199508;28;20044;-71
2022/08/03 01:50:44;;;;;;;5.32;3.35;;;;;;;13.47;81.05;98714.63;4201764;28;20387;-71
2022/08/03 01:52:46;;;;;;;7.13;4.00;;;;;;;13.43;81.17;98713.03;4200625;28;20479;-71
2022/08/03 01:54:49;;;;;;;4.72;3.00;;;;;;;13.41;80.63;98716.22;4200793;28;20312;-71
2022/08/03 01:56:53;;;;;;;7.57;3.67;;;;;;;13.39;80.91;98706.66;4199877;28;20044;-71
2022/08/03 01:58:56;;;;;;;6.18;3.90;;;;;;;13.40;81.13;98716.56;4200271;28;20032;-72
2022/08/03 02:00:59;;;;;;;9.40;3.65;;;;;;;13.39;80.79;98715.00;4201180;28;20052;-72
2022/08/03 02:03:01;;;;;;;6.18;3.38;;;;;;;13.35;81.04;98706.66;4200285;28;20042;-71
2022/08/03 02:05:06;;;;;;;3.92;2.90;;;;;;;13.34;81.30;98707.03;4199753;28;20052;-71
2022/08/03 02:07:08;;;;;;;10.30;3.65;;;;;;;13.30;80.84;98709.78;4201754;28;20828;-71
2022/08/03 02:09:08;;;;;;;6.03;3.33;;;;;;;13.32;79.70;98712.16;4200588;28;20294;-71
2022/08/03 02:11:09;;;;;;;6.30;3.10;;;;;;;13.31;80.42;98700.25;4202361;28;20065;-71
2022/08/03 02:13:11;;;;;;;8.23;3.42;;;;;;;13.28;81.38;98711.38;4203609;28;20444;-71
2022/08/03 02:15:14;;;;;;;5.75;3.38;;;;;;;13.26;81.74;98711.78;4204375;28;20083;-71
2022/08/03 02:17:15;;;;;;;10.32;4.10;;;;;;;13.25;81.25;98710.19;4202387;28;20124;-72
2022/08/03 02:19:16;;;;;;;6.40;3.78;;;;;;;13.30;80.39;98717.34;4202731;28;20075;-72
2022/08/03 02:21:17;;;;;;;4.88;3.50;;;;;;;13.27;80.58;98704.22;4204153;28;20071;-71
2022/08/03 02:23:18;;;;;;;5.88;3.55;;;;;;;13.28;80.29;98708.59;4203156;28;20051;-71
2022/08/03 02:25:18;;;;;;;7.75;3.58;;;;;;;13.25;80.91;98703.84;4203542;28;20036;-71
2022/08/03 02:27:22;;;;;;;8.00;3.58;;;;;;;13.20;81.40;98705.00;4203664;28;20050;-71
2022/08/03 02:29:26;;;;;;;5.25;3.30;;;;;;;13.15;81.84;98706.13;4202591;28;20135;-72
2022/08/03 02:31:31;;;;;;;7.00;3.30;;;;;;;13.14;81.14;98709.28;4202009;28;20052;-71
2022/08/03 02:33:43;;;;;;;5.13;3.22;;;;;;;13.15;79.91;98703.34;4203077;28;20040;-72
2022/08/03 02:35:44;;;;;;;8.05;3.53;;;;;;;13.15;80.37;98706.13;4203130;28;20141;-71
2022/08/03 02:37:49;;;;;;;5.07;3.22;;;;;;;13.12;80.52;98695.78;4203731;28;20042;-71
2022/08/03 02:39:52;;;;;;;4.57;3.40;;;;;;;13.08;80.88;98692.22;4203057;28;20392;-71
2022/08/03 02:42:01;;;;;;;5.55;3.40;;;;;;;13.07;81.27;98696.16;4203311;28;20051;-71
2022/08/03 02:44:06;;;;;;;9.70;3.58;;;;;;;13.02;80.99;98692.97;4202305;28;20143;-71
2022/08/03 02:46:08;;;;;;;5.18;2.90;;;;;;;13.01;81.73;98688.59;4204307;28;20031;-71
2022/08/03 02:48:11;;;;;;;4.03;2.88;;;;;;;12.96;81.68;98688.97;4203171;28;20032;-71
2022/08/03 02:50:12;;;;;;;;;;;;;;;12.96;81.71;98702.84;4202772;28;20020;-72
2022/08/03 02:52:13;;;;;;;4.35;2.88;;;;;;;12.91;81.20;98699.28;4203711;28;19973;-72
2022/08/03 02:54:17;;;;;;;6.38;3.15;;;;;;;12.90;81.77;98700.44;4201862;28;20016;-71
2022/08/03 02:56:18;;;;;;;3.50;2.88;;;;;;;12.90;81.38;98699.63;4202990;28;20032;-72
2022/08/03 02:58:22;;;;;;;7.97;3.78;;;;;;;12.88;82.35;98697.25;4197865;28;20047;-71
2022/08/03 03:00:23;;;;;;;3.63;2.97;;;;;;;12.82;82.51;98690.47;4203408;28;20403;-71
2022/08/03 03:02:24;;;;;;;4.57;3.20;;;;;;;12.80;83.08;98690.06;4204289;28;20993;-71
2022/08/03 03:04:27;;;;;;;8.23;3.60;;;;;;;12.81;81.44;98686.09;4202543;28;20123;-72
2022/08/03 03:06:29;;;;;;;7.00;3.78;;;;;;;12.78;82.37;98689.66;4202803;28;20047;-72
2022/08/03 03:08:30;;;;;;;5.78;3.60;;;;;;;12.75;82.78;98689.66;4201684;28;20546;-71
2022/08/03 03:10:30;;;;;;;9.90;3.42;;;;;;;12.70;82.59;98679.69;4203703;28;20123;-71
2022/08/03 03:12:34;;;;;;;6.60;3.33;;;;;;;12.72;81.49;98687.63;4203463;28;20388;-71
2022/08/03 03:14:37;;;;;;;8.52;3.40;;;;;;;12.69;82.29;98686.44;4202747;28;20499;-71
2022/08/03 03:16:39;;;;;;;17.30;3.90;;;;;;;12.65;81.64;98680.06;4202977;28;20403;-71
2022/08/03 03:18:42;;;;;;;3.28;2.85;;;;;;;12.63;82.96;98685.19;4203034;28;20044;-71
2022/08/03 03:20:44;;;;;;;;;;;;;;;12.57;83.96;98684.75;4203198;28;20044;-71
2022/08/03 03:22:46;;;;;;;6.13;3.58;;;;;;;12.54;83.75;98681.97;4202996;28;20256;-71
2022/08/03 03:24:48;;;;;;;;;;;;;;;12.60;82.81;98691.53;4195422;28;20040;-71
2022/08/03 03:26:49;;;;;;;6.60;3.45;;;;;;;12.63;82.56;98682.44;4202158;28;19939;-72
2022/08/03 03:28:49;;;;;;;9.15;3.70;;;;;;;12.60;83.05;98685.97;4202787;28;20040;-72
2022/08/03 03:30:51;;;;;;;10.15;3.38;;;;;;;12.60;82.96;98694.31;4202637;28;20051;-71
2022/08/03 03:32:52;;;;;;;4.13;2.90;;;;;;;12.56;84.16;98683.16;4202696;28;20533;-71
2022/08/03 03:34:54;;;;;;;7.78;3.33;;;;;;;12.55;85.35;98687.13;4203526;28;20075;-71
2022/08/03 03:36:55;;;;;;;3.55;3.05;;;;;;;12.52;85.81;98690.69;4203484;28;20074;-71
2022/08/03 03:38:56;;;;;;;4.45;3.10;;;;;;;12.51;86.10;98686.31;4202784;28;20039;-71
2022/08/03 03:40:56;;;;;;;5.25;3.50;;;;;;;12.51;86.53;98693.84;4202545;28;20051;-71
2022/08/03 03:42:56;;;;;;;7.40;3.40;;;;;;;12.53;86.39;98692.28;4201015;28;20048;-71
2022/08/03 03:44:57;;;;;;;7.40;3.13;;;;;;;12.52;85.72;98687.13;4203013;28;20067;-71
2022/08/03 03:46:58;;;;;;;4.68;3.30;;;;;;;12.51;86.10;98685.53;4201595;28;20040;-71
2022/08/03 03:48:58;;;;;;;4.78;3.00;;;;;;;12.45;87.03;98689.84;4202750;28;20040;-71
2022/08/03 03:50:59;;;;;;;4.60;3.30;;;;;;;12.41;87.00;98680.69;4202446;28;20553;-71
2022/08/03 03:53:00;;;;;;;4.32;3.30;;;;;;;12.40;86.98;98685.44;4201628;28;20044;-71
2022/08/03 03:55:01;;;;;;;4.03;3.33;;;;;;;12.41;86.59;98694.53;4203306;28;20044;-71
2022/08/03 03:57:02;;;;;;;4.75;3.67;;;;;;;12.37;86.10;98689.78;4202864;28;20075;-71
2022/08/03 03:59:03;;;;;;;7.05;3.85;;;;;;;12.37;86.12;98695.31;4202236;28;20059;-71
2022/08/03 04:01:03;;;;;;;7.55;3.50;;;;;;;12.35;86.44;98686.59;4201093;28;20036;-71
2022/08/03 04:03:03;;;;;;;8.35;3.42;;;;;;;12.32;86.35;98694.88;4201523;28;20396;-71
2022/08/03 04:12:05;;;;;;;8.55;3.67;;;;;;;12.26;86.00;98688.91;4201182;28;20195;-71
2022/08/03 04:14:10;;;;;;;7.53;3.60;;;;;;;12.29;85.98;98695.66;4201119;28;20063;-71
2022/08/03 04:16:13;;;;;;;4.40;3.60;;;;;;;12.29;86.72;98693.69;4200365;28;20028;-71
2022/08/03 04:18:15;;;;;;;6.40;3.95;;;;;;;12.30;87.18;98700.81;4196758;28;20032;-71
2022/08/03 04:20:19;;;;;;;8.57;4.35;;;;;;;12.32;87.00;98703.19;4200234;28;20119;-71
2022/08/03 04:22:25;;;;;;;7.57;4.25;;;;;;;12.32;86.96;98700.44;4200898;28;20020;-71
2022/08/03 04:24:32;;;;;;;6.82;4.35;;;;;;;12.35;87.29;98710.78;4199422;28;20050;-71
2022/08/03 04:26:37;;;;;;;6.18;4.30;;;;;;;12.35;87.39;98706.03;4201760;28;20042;-71
2022/08/03 04:28:42;;;;;;;7.05;3.80;;;;;;;12.44;87.14;98714.00;4197832;28;20055;-71
2022/08/03 04:30:47;;;;;;;5.93;3.47;;;;;;;12.48;86.69;98716.81;4200810;28;20040;-71
2022/08/03 04:32:50;;;;;;;7.95;3.53;;;;;;;12.55;85.89;98723.22;4200126;28;20059;-71
2022/08/03 04:34:52;;;;;;;7.10;3.80;;;;;;;12.56;86.12;98710.94;4199879;28;20127;-71
2022/08/03 04:37:01;;;;;;;7.63;4.20;;;;;;;12.59;85.86;98723.25;4201428;28;20683;-71
2022/08/03 04:39:15;;;;;;;5.72;3.53;;;;;;;12.62;85.80;98714.16;4199082;28;20620;-71
2022/08/03 04:41:16;;;;;;;7.78;3.75;;;;;;;12.67;85.88;98721.31;4200433;28;20495;-71
2022/08/03 04:43:18;;;;;;;7.93;4.72;;;;;;;12.67;85.57;98722.13;4199734;28;20098;-71
2022/08/03 04:45:20;;;;;;;6.82;4.43;;;;;;;12.74;85.14;98718.56;4187645;28;20631;-71
2022/08/03 04:47:21;;;;;;;10.32;4.93;;;;;;;12.77;85.21;98721.38;4197836;28;20036;-70
2022/08/03 04:49:22;;;;;;;7.63;4.63;;;;;;;12.84;84.78;98721.44;4198253;28;20396;-71
2022/08/03 04:51:24;;;;;;;11.45;4.75;;;;;;;12.92;84.25;98719.50;4198890;28;20736;-71
2022/08/03 04:53:24;;;;;;;6.45;4.50;;;;;;;12.98;83.97;98711.59;4198136;28;20043;-71
2022/08/03 04:55:26;;;;;;;8.68;3.90;;;;;;;13.05;83.67;98715.19;4201698;28;20048;-71
2022/08/03 04:57:27;;;;;;;7.50;4.97;;;;;;;13.15;83.04;98722.78;4200485;28;20177;-71
2022/08/03 04:59:27;;;;;;;8.80;4.53;;;;;;;13.27;83.07;98718.13;4200330;28;20433;-71
2022/08/03 05:01:27;;;;;;;6.05;4.00;;;;;;;13.36;81.14;98724.13;4199734;28;20432;-71
2022/08/03 05:03:28;;;;;;;6.38;4.50;;;;;;;13.47;81.14;98720.19;4199995;28;20041;-71
2022/08/03 05:05:28;;;;;;;10.25;4.72;;;;;;;13.60;80.54;98722.63;4201187;28;20036;-71
2022/08/03 05:07:28;;;;;;;10.15;4.43;;;;;;;13.69;80.30;98718.28;4201192;28;20048;-71
2022/08/03 05:09:29;;;;;;;6.50;4.15;;;;;;;13.82;79.25;98712.34;4198863;28;20052;-71
2022/08/03 05:11:29;;;;;;;6.13;3.95;;;;;;;13.96;78.53;98717.94;4197742;28;20081;-71
2022/08/03 05:13:30;;;;;;;5.90;3.90;;;;;;;14.08;77.61;98723.13;4200206;28;20044;-71
2022/08/03 05:15:30;;;;;;;5.05;4.03;;;;;;;14.21;77.75;98710.41;4199393;28;20033;-71
2022/08/03 05:17:32;;;;;;;5.47;4.30;;;;;;;14.33;77.61;98717.59;4199449;28;20275;-71
2022/08/03 05:19:33;;;;;;;7.15;4.05;;;;;;;14.41;77.63;98716.41;4199898;28;20044;-71
2022/08/03 05:21:34;;;;;;;5.05;3.47;;;;;;;14.56;77.45;98723.59;4200059;28;20222;-71
2022/08/03 05:23:34;;;;;;;7.25;4.30;;;;;;;14.66;76.47;98713.63;4199152;28;20044;-71
2022/08/03 05:25:35;;;;;;;3.83;3.38;;;;;;;14.76;75.96;98715.59;4200228;28;20539;-71
2022/08/03 05:27:35;;;;;;;4.72;4.00;;;;;;;14.87;75.69;98712.78;4197689;28;20545;-71
2022/08/03 05:29:35;;;;;;;7.38;3.90;;;;;;;14.96;75.36;98718.72;4200888;28;20545;-71
2022/08/03 05:31:36;;;;;;;5.25;4.13;;;;;;;15.05;75.02;98719.09;4200237;28;20078;-71
2022/08/03 05:33:36;;;;;;;4.30;3.63;;;;;;;15.15;75.23;98718.31;4200990;28;20094;-71
2022/08/03 05:35:38;;;;;;;6.68;4.15;;;;;;;15.27;76.52;98719.06;4198310;28;20100;-71
2022/08/03 05:37:38;;;;;;;4.95;3.88;;;;;;;15.36;76.28;98714.63;4199561;28;20498;-71
2022/08/03 05:39:38;;;;;;;4.13;3.70;;;;;;;15.46;76.05;98719.38;4199739;28;20395;-71
2022/08/03 05:41:39;;;;;;;8.32;3.60;;;;;;;15.56;75.98;98723.31;4198934;28;20040;-71
2022/08/03 05:43:39;;;;;;;7.93;4.43;;;;;;;15.62;74.78;98710.56;4199828;28;20084;-71
2022/08/03 05:45:40;;;;;;;5.03;3.85;;;;;;;15.68;74.10;98711.72;4199586;28;20499;-71
2022/08/03 05:47:43;;;;;;;6.10;3.85;;;;;;;15.76;73.81;98703.31;4201571;28;20044;-71
2022/08/03 05:49:43;;;;;;;5.85;3.47;;;;;;;15.85;74.13;98707.25;4201734;28;20546;-71
2022/08/03 05:51:43;;;;;;;5.53;3.58;;;;;;;15.95;73.50;98713.97;4200394;28;20051;-71
2022/08/03 05:53:44;;;;;;;5.05;3.75;;;;;;;16.03;73.14;98721.09;4203386;28;20067;-71
2022/08/03 05:55:44;;;;;;;4.40;3.72;;;;;;;16.13;72.31;98716.63;4201994;28;20450;-71
2022/08/03 05:57:46;;;;;;;4.43;3.45;;;;;;;16.24;71.80;98714.56;4204129;28;20044;-71
2022/08/03 05:59:46;;;;;;;4.43;3.53;;;;;;;16.37;70.79;98714.84;4202808;28;20592;-71
2022/08/03 06:01:46;;;;;;;4.18;3.78;;;;;;;16.49;69.29;98717.97;4202578;28;20077;-71
2022/08/03 06:03:48;;;;;;;3.92;3.53;;;;;;;16.58;69.25;98712.69;4198121;28;20047;-71
2022/08/03 06:05:48;;;;;;;8.30;3.40;;;;;;;16.69;67.99;98717.41;4199592;28;20052;-71
2022/08/03 06:07:49;;;;;;;4.95;3.47;;;;;;;16.78;68.02;98717.72;4203435;28;20070;-71
2022/08/03 06:09:49;;;;;;;9.43;3.58;;;;;;;16.83;67.60;98715.28;4202078;28;20071;-71
2022/08/03 06:11:49;;;;;;;4.28;3.05;;;;;;;16.91;67.47;98718.00;4203944;28;20456;-71
2022/08/03 06:13:50;;;;;;;4.18;3.35;;;;;;;16.96;67.09;98711.94;4204890;28;20052;-71
2022/08/03 06:15:50;;;;;;;6.72;3.60;;;;;;;17.04;67.70;98721.84;4203411;28;20121;-71
2022/08/03 06:17:51;;;;;;;4.90;3.17;;;;;;;17.11;67.00;98718.97;4204204;28;20055;-71
2022/08/03 06:19:52;;;;;;;5.40;3.38;;;;;;;17.19;65.97;98719.69;4204185;28;20303;-71
2022/08/03 06:21:52;;;;;;;4.53;3.28;;;;;;;17.32;66.55;98723.56;4204897;28;20040;-71
2022/08/03 06:23:53;;;;;;;4.10;3.70;;;;;;;17.43;65.49;98718.63;4204141;28;20433;-71
2022/08/03 06:25:53;;;;;;;3.90;2.95;;;;;;;17.47;65.70;98721.38;4204877;28;20517;-71
2022/08/03 06:27:53;;;;;;;5.70;3.50;;;;;;;17.54;65.70;98719.28;4204549;28;20082;-71
2022/08/03 06:29:54;;;;;;;5.55;3.40;;;;;;;17.62;65.44;98717.16;4204100;28;20080;-71
2022/08/03 06:31:54;;;;;;;3.97;3.13;;;;;;;17.72;64.17;98719.09;4204636;28;20499;-71
2022/08/03 06:33:54;;;;;;;7.45;3.70;;;;;;;17.78;64.93;98716.59;4203005;28;20048;-71
2022/08/03 06:35:55;;;;;;;3.38;3.00;;;;;;;17.83;64.67;98716.94;4205737;28;20040;-71
2022/08/03 06:37:55;;;;;;;4.65;3.40;;;;;;;17.92;63.59;98714.41;4203575;28;20047;-71
2022/08/03 06:39:56;;;;;;;5.97;3.80;;;;;;;18.01;63.80;98713.09;4204211;28;20123;-71
2022/08/03 06:41:56;;;;;;;6.20;3.42;;;;;;;18.09;63.51;98715.34;4202701;28;20318;-71
2022/08/03 06:43:57;;;;;;;4.13;3.30;;;;;;;18.17;64.26;98714.03;4203715;28;20043;-71
2022/08/03 06:45:57;;;;;;;4.80;3.58;;;;;;;18.32;62.96;98716.63;4204349;28;20143;-71
2022/08/03 06:48:04;;;;;;;3.30;3.00;;;;;;;18.44;62.03;98705.59;4204326;28;20032;-71
2022/08/03 06:50:06;;;;;;;3.28;2.92;;;;;;;18.60;61.66;98721.75;4203879;28;20063;-71
2022/08/03 06:52:06;;;;;;;3.70;3.30;;;;;;;18.72;61.07;98717.59;4203861;28;20101;-71
2022/08/03 06:54:07;;;;;;;4.38;2.85;;;;;;;18.85;60.81;98720.53;4202143;28;20278;-72
2022/08/03 06:56:07;;;;;;;3.05;2.60;;;;;;;18.93;60.70;98719.19;4203395;28;20028;-71
2022/08/03 06:58:08;;;;;;;4.57;3.08;;;;;;;19.00;59.23;98707.84;4203314;28;20187;-71
2022/08/03 07:00:10;;;;;;;3.65;2.80;;;;;;;19.12;59.00;98710.03;4202118;28;20407;-71
2022/08/03 07:02:10;;;;;;;3.92;3.15;;;;;;;19.24;59.42;98719.81;4203715;28;20106;-71
2022/08/03 07:04:11;;;;;;;3.13;2.83;;;;;;;19.36;59.30;98720.00;4203192;28;20064;-71
2022/08/03 07:06:11;;;;;;;4.60;2.78;;;;;;;19.42;58.90;98714.63;4202736;28;20130;-72
2022/08/03 07:08:12;;;;;;;3.90;2.80;;;;;;;19.50;58.88;98710.47;4202843;28;20035;-72
2022/08/03 07:10:13;;;;;;;3.45;2.90;;;;;;;19.57;58.96;98715.19;4202676;28;20134;-72
2022/08/03 07:12:13;;;;;;;3.40;2.88;;;;;;;19.64;58.37;98712.22;4203700;28;20529;-72
2022/08/03 07:14:13;;;;;;;3.92;2.97;;;;;;;19.76;58.69;98713.56;4202781;28;20093;-72
2022/08/03 07:16:14;;;;;;;6.07;3.22;;;;;;;19.88;57.37;98712.91;4203725;28;20421;-72
2022/08/03 07:18:14;;;;;;;3.60;2.47;;;;;;;20.11;57.51;98709.97;4203906;28;20030;-72
2022/08/03 07:20:17;;;;;;;5.35;2.85;;;;;;;20.21;56.89;98705.34;4203417;28;20478;-71
2022/08/03 07:22:17;;;;;;;9.70;3.22;;;;;;;20.31;55.02;98707.09;4202660;28;20024;-71
2022/08/03 07:24:17;;;;;;;7.45;3.10;;;;;;;20.53;54.88;98715.84;4202637;28;20027;-71
2022/08/03 07:26:17;;;;;;;7.13;3.30;;;;;;;20.72;54.27;98698.06;4202994;28;20348;-71
2022/08/03 07:28:18;;;;;;;10.18;2.92;;;;;;;20.86;53.78;98699.72;4203874;28;20028;-71
2022/08/03 07:30:19;;;;;;;3.20;2.90;;;;;;;20.97;54.22;98705.06;4201976;28;20111;-71
2022/08/03 07:32:19;;;;;;;4.55;2.90;;;;;;;21.08;54.49;98702.72;4203125;28;20349;-71
2022/08/03 07:34:20;;;;;;;6.10;2.90;;;;;;;21.21;53.58;98700.78;4203902;28;20024;-71
2022/08/03 07:36:20;;;;;;;3.08;2.75;;;;;;;21.30;53.83;98709.38;4202211;28;20448;-71
2022/08/03 07:38:20;;;;;;;4.32;2.70;;;;;;;21.36;53.91;98706.81;4202329;28;20492;-71
2022/08/03 07:40:21;;;;;;;2.97;2.67;;;;;;;21.43;53.73;98695.38;4204305;28;20583;-71
2022/08/03 07:42:24;;;;;;;7.22;3.00;;;;;;;21.53;55.02;98697.06;4201532;28;20036;-71
2022/08/03 07:44:24;;;;;;;3.05;2.58;;;;;;;21.63;54.01;98703.63;4202385;28;20044;-71
2022/08/03 07:46:25;;;;;;;7.32;2.80;;;;;;;21.79;52.05;98709.19;4203762;28;20040;-71
2022/08/03 07:48:25;;;;;;;3.80;2.80;;;;;;;21.96;51.07;98703.44;4202475;28;20349;-71
2022/08/03 07:50:26;;;;;;;2.92;2.30;;;;;;;22.10;51.29;98701.00;4202918;28;20496;-71
2022/08/03 07:54:45;;;;;;;5.22;2.60;;;;;;;22.48;49.10;98700.19;4202892;28;20051;-71
2022/08/03 07:56:45;;;;;;;4.35;2.72;;;;;;;22.57;48.62;98697.47;4202787;28;20048;-71
2022/08/03 07:58:45;;;;;;;4.28;2.55;;;;;;;22.73;47.38;98698.56;4202749;28;20048;-71
2022/08/03 08:00:46;;;;;;;6.10;2.33;;;;;;;22.93;46.78;98694.25;4203037;28;20051;-71
2022/08/03 08:02:46;;;;;;;2.83;2.22;;;;;;;23.14;47.09;98687.06;4202116;28;20097;-71
2022/08/03 08:04:46;;;;;;;2.45;2.25;;;;;;;23.40;44.47;98689.75;4202564;28;20063;-71
2022/08/03 08:06:47;;;;;;;4.15;2.45;;;;;;;23.67;43.82;98687.16;4202834;28;20498;-71
2022/08/03 08:08:47;;;;;;;2.67;2.30;;;;;;;23.83;43.13;98688.94;4201650;28;20130;-71
2022/08/03 08:10:48;;;;;;;2.47;2.20;;;;;;;23.86;42.89;98685.22;4202114;28;20471;-71
2022/08/03 08:12:48;;;;;;;2.85;2.30;;;;;;;23.88;42.59;98679.88;4203150;28;20247;-72
2022/08/03 08:14:48;;;;;;;2.80;2.03;;;;;;;24.07;40.22;98684.34;4203200;28;20429;-72
2022/08/03 08:16:49;;;;;;;3.55;2.30;;;;;;;24.08;41.95;98680.31;4202212;28;20055;-72
2022/08/03 08:18:49;;;;;;;2.63;2.13;;;;;;;24.09;41.59;98678.25;4202881;28;20048;-72
2022/08/03 08:20:50;;;;;;;8.10;2.60;;;;;;;24.15;42.07;98681.25;4202712;28;20086;-71
2022/08/03 08:22:50;;;;;;;2.30;2.10;;;;;;;24.22;40.48;98678.13;4202340;28;20165;-72
2022/08/03 08:24:50;;;;;;;2.47;2.20;;;;;;;24.41;38.64;98679.00;4202296;28;20441;-71
2022/08/03 08:26:51;;;;;;;3.80;2.10;;;;;;;24.45;38.51;98676.81;4203370;28;20442;-72
2022/08/03 08:28:51;;;;;;;5.95;2.00;;;;;;;24.60;37.64;98678.59;4201365;28;20071;-71
2022/08/03 08:30:52;;;;;;;2.20;2.00;;;;;;;24.74;37.69;98670.75;4202139;28;20074;-72
2022/08/03 08:32:52;;;;;;;2.63;1.83;;;;;;;24.85;37.47;98673.91;4203199;28;20044;-72
2022/08/03 08:34:52;;;;;;;2.47;2.13;;;;;;;25.01;37.42;98676.44;4201274;28;20040;-72
2022/08/03 08:36:53;;;;;;;4.75;2.22;;;;;;;25.08;36.86;98667.66;4202888;28;20127;-72
2022/08/03 08:38:53;;;;;;;3.75;2.25;;;;;;;25.16;36.53;98676.63;4202277;28;20191;-72
2022/08/03 08:40:54;;;;;;;2.33;2.08;;;;;;;25.20;36.06;98677.25;4201921;28;20098;-72
2022/08/03 08:42:55;;;;;;;2.20;2.00;;;;;;;25.23;36.18;98672.69;4202894;28;20044;-72
2022/08/03 08:44:55;;;;;;;1.98;1.77;;;;;;;25.32;36.11;98681.97;4202619;28;20080;-72
2022/08/03 08:46:56;;;;;;;2.20;1.88;;;;;;;25.45;35.43;98678.97;4203054;28;20052;-72
2022/08/03 08:48:58;;;;;;;2.13;1.92;;;;;;;25.45;35.56;98668.41;4200656;28;20749;-72
2022/08/03 08:51:00;;;;;;;3.50;1.88;;;;;;;25.55;36.04;98668.38;4202494;28;20039;-72
2022/08/03 08:53:04;;;;;;;2.38;1.90;;;;;;;25.58;35.92;98675.97;4202404;28;20122;-72
2022/08/03 08:55:07;;;;;;;3.45;2.22;;;;;;;25.70;35.21;98672.13;4202617;28;20044;-72
2022/08/03 08:57:08;;;;;;;7.53;2.25;;;;;;;25.72;35.44;98663.97;4201987;28;20556;-72
2022/08/03 08:59:09;;;;;;;2.55;1.90;;;;;;;25.85;35.63;98667.41;4200533;28;20513;-72
2022/08/03 09:01:09;;;;;;;3.00;1.90;;;;;;;26.04;34.66;98670.94;4202900;28;20414;-72
2022/08/03 09:03:11;;;;;;;7.10;2.00;;;;;;;26.06;34.25;98671.25;4201953;28;20533;-72
2022/08/03 09:05:20;;;;;;;2.63;2.20;;;;;;;26.12;34.06;98663.66;4201720;28;20066;-72
2022/08/03 09:07:20;;;;;;;2.83;2.20;;;;;;;26.07;34.88;98660.72;4201613;28;20040;-72
2022/08/03 09:09:21;;;;;;;3.17;2.20;;;;;;;26.10;34.18;98668.25;4201689;28;20128;-72
2022/08/03 09:11:22;;;;;;;2.45;2.10;;;;;;;26.19;34.35;98656.88;4201707;28;20472;-72
2022/08/03 09:13:23;;;;;;;5.13;2.08;;;;;;;26.28;34.38;98665.34;4202058;28;20141;-72
2022/08/03 09:15:25;;;;;;;2.72;2.15;;;;;;;26.37;33.50;98662.44;4202125;28;20469;-72
2022/08/03 09:17:39;;;;;;;5.03;1.90;;;;;;;26.42;34.33;98653.31;4202007;28;20213;-72
2022/08/03 09:19:39;;;;;;;6.07;2.20;;;;;;;26.71;33.54;98660.38;4201447;28;20043;-72
2022/08/03 09:21:39;;;;;;;2.47;1.92;;;;;;;26.85;33.13;98651.13;4202733;28;20223;-72
2022/08/03 09:23:49;;;;;;;3.35;1.90;;;;;;;26.97;32.68;98654.97;4204808;28;20131;-72
2022/08/03 09:25:57;;;;;;;1.92;1.83;;;;;;;26.83;32.44;98643.13;4203934;28;20051;-72
2022/08/03 09:28:07;;;;;;;3.65;2.20;;;;;;;26.87;32.54;98660.72;4204583;28;20051;-72
2022/08/03 09:30:15;;;;;;;5.22;2.10;;;;;;;26.84;33.15;98655.25;4204090;28;20074;-72
2022/08/03 09:32:22;;;;;;;2.22;2.00;;;;;;;26.79;34.70;98656.69;4204486;28;20043;-72
2022/08/03 09:34:24;;;;;;;5.68;2.05;;;;;;;26.84;34.91;98649.56;4204036;28;20582;-72
2022/08/03 09:36:36;;;;;;;3.83;2.25;;;;;;;26.95;34.35;98652.63;4205226;28;20069;-72
2022/08/03 09:38:37;;;;;;;2.20;2.00;;;;;;;26.99;33.94;98644.72;4204590;28;20391;-72
2022/08/03 09:40:37;;;;;;;2.47;2.20;;;;;;;26.97;34.77;98646.47;4205673;28;20043;-72
2022/08/03 09:42:55;;;;;;;4.78;2.33;;;;;;;27.03;33.64;98647.38;4205664;28;20147;-72
2022/08/03 09:44:56;;;;;;;2.25;1.92;;;;;;;27.10;32.97;98642.13;4205270;28;20062;-72